sensor_id;sensor_type;location;lat;lon;timestamp;pressure;altitude;pressure_sealevel;temperature;humidity
35888;BME280;21990;42.540;23.496;2023-04-07T03:31:46;93186.13;;;-0.16;75.86
35888;BME280;21990;42.540;23.496;2023-04-07T03:34:12;93187.47;;;-0.35;75.89
35888;BME280;21990;42.540;23.496;2023-04-07T03:36:37;93179.94;;;-0.34;75.92
35888;BME280;21990;42.540;23.496;2023-04-07T03:39:03;93184.38;;;-0.52;75.77
35888;BME280;21990;42.540;23.496;2023-04-07T03:41:28;93188.13;;;-0.64;76.59
35888;BME280;21990;42.540;23.496;2023-04-07T03:43:54;93201.06;;;-0.70;76.34
35888;BME280;21990;42.540;23.496;2023-04-07T03:46:19;93201.31;;;-0.82;75.71
35888;BME280;21990;42.540;23.496;2023-04-07T03:48:45;93199.22;;;-0.73;76.35
35888;BME280;21990;42.540;23.496;2023-04-07T03:51:11;93192.94;;;-0.73;77.08
35888;BME280;21990;42.540;23.496;2023-04-07T03:53:37;93200.88;;;-0.90;76.59
35888;BME280;21990;42.540;23.496;2023-04-07T03:56:03;93205.16;;;-0.89;77.23
35888;BME280;21990;42.540;23.496;2023-04-07T03:58:29;93213.59;;;-0.83;76.58
35888;BME280;21990;42.540;23.496;2023-04-07T04:00:54;93208.47;;;-0.76;77.18
35888;BME280;21990;42.540;23.496;2023-04-07T04:03:20;93216.31;;;-0.74;77.57
35888;BME280;21990;42.540;23.496;2023-04-07T04:05:45;93211.84;;;-0.72;77.48
35888;BME280;21990;42.540;23.496;2023-04-07T04:08:11;93213.59;;;-0.83;77.56
35888;BME280;21990;42.540;23.496;2023-04-07T04:10:36;93211.59;;;-0.83;77.72
35888;BME280;21990;42.540;23.496;2023-04-07T04:13:02;93206.47;;;-0.75;77.98
35888;BME280;21990;42.540;23.496;2023-04-07T04:15:31;93206.75;;;-0.73;77.21
35888;BME280;21990;42.540;23.496;2023-04-07T04:17:56;93204.19;;;-0.77;77.45
35888;BME280;21990;42.540;23.496;2023-04-07T04:20:22;93202.00;;;-0.73;77.63
35888;BME280;21990;42.540;23.496;2023-04-07T04:22:47;93213.22;;;-0.67;77.54
35888;BME280;21990;42.540;23.496;2023-04-07T04:25:13;93217.78;;;-0.64;77.40
35888;BME280;21990;42.540;23.496;2023-04-07T04:27:39;93222.88;;;-0.63;77.99
35888;BME280;21990;42.540;23.496;2023-04-07T04:30:05;93228.81;;;-0.55;77.89
35888;BME280;21990;42.540;23.496;2023-04-07T04:32:31;93227.81;;;-0.67;78.12
35888;BME280;21990;42.540;23.496;2023-04-07T04:34:56;93223.78;;;-0.66;78.68
35888;BME280;21990;42.540;23.496;2023-04-07T04:37:22;93223.97;;;-0.69;78.23
35888;BME280;21990;42.540;23.496;2023-04-07T04:39:47;93230.69;;;-0.61;78.31
35888;BME280;21990;42.540;23.496;2023-04-07T04:42:13;93227.50;;;-0.69;78.45
35888;BME280;21990;42.540;23.496;2023-04-07T04:44:38;93225.28;;;-0.56;79.83
35888;BME280;21990;42.540;23.496;2023-04-07T04:47:04;93224.56;;;-0.41;79.31
35888;BME280;21990;42.540;23.496;2023-04-07T04:49:30;93234.38;;;-0.31;78.96
35888;BME280;21990;42.540;23.496;2023-04-07T04:51:55;93234.09;;;-0.19;78.79
35888;BME280;21990;42.540;23.496;2023-04-07T04:54:21;93237.88;;;-0.07;77.99
35888;BME280;21990;42.540;23.496;2023-04-07T04:56:46;93246.59;;;0.00;78.47
35888;BME280;21990;42.540;23.496;2023-04-07T04:59:12;93245.09;;;0.14;78.20
35888;BME280;21990;42.540;23.496;2023-04-07T05:01:38;93234.97;;;0.11;75.96
35888;BME280;21990;42.540;23.496;2023-04-07T05:04:03;93240.06;;;-0.11;75.91
35888;BME280;21990;42.540;23.496;2023-04-07T05:06:29;93242.13;;;0.03;76.20
35888;BME280;21990;42.540;23.496;2023-04-07T05:08:55;93244.31;;;-0.01;76.31
35888;BME280;21990;42.540;23.496;2023-04-07T05:11:21;93242.50;;;-0.04;76.29
35888;BME280;21990;42.540;23.496;2023-04-07T05:13:46;93240.41;;;0.06;76.72
35888;BME280;21990;42.540;23.496;2023-04-07T05:16:12;93244.59;;;0.01;76.83
35888;BME280;21990;42.540;23.496;2023-04-07T05:18:37;93246.59;;;0.00;76.73
35888;BME280;21990;42.540;23.496;2023-04-07T05:21:03;93238.84;;;0.05;75.85
35888;BME280;21990;42.540;23.496;2023-04-07T05:23:29;93241.56;;;0.14;76.92
35888;BME280;21990;42.540;23.496;2023-04-07T05:25:54;93247.84;;;0.38;77.78
35888;BME280;21990;42.540;23.496;2023-04-07T05:28:20;93240.13;;;0.71;78.38
35888;BME280;21990;42.540;23.496;2023-04-07T05:30:46;93257.72;;;0.98;76.61
35888;BME280;21990;42.540;23.496;2023-04-07T05:33:12;93242.41;;;1.02;74.82
35888;BME280;21990;42.540;23.496;2023-04-07T05:35:38;93243.09;;;1.12;74.79
35888;BME280;21990;42.540;23.496;2023-04-07T05:38:03;93255.50;;;1.31;72.97
35888;BME280;21990;42.540;23.496;2023-04-07T05:40:29;93242.63;;;1.48;72.24
35888;BME280;21990;42.540;23.496;2023-04-07T05:42:55;93226.47;;;1.47;71.18
35888;BME280;21990;42.540;23.496;2023-04-07T05:45:20;93231.59;;;1.54;71.13
35888;BME280;21990;42.540;23.496;2023-04-07T05:47:46;93245.59;;;1.59;72.04
35888;BME280;21990;42.540;23.496;2023-04-07T05:50:14;93242.66;;;1.68;72.38
35888;BME280;21990;42.540;23.496;2023-04-07T05:52:40;93244.34;;;1.80;72.53
35888;BME280;21990;42.540;23.496;2023-04-07T05:55:06;93238.66;;;1.89;72.08
35888;BME280;21990;42.540;23.496;2023-04-07T05:57:31;93239.78;;;1.98;71.53
35888;BME280;21990;42.540;23.496;2023-04-07T05:59:57;93235.19;;;2.15;72.54
35888;BME280;21990;42.540;23.496;2023-04-07T06:02:23;93240.41;;;2.27;73.24
35888;BME280;21990;42.540;23.496;2023-04-07T06:04:48;93235.94;;;2.35;71.80
35888;BME280;21990;42.540;23.496;2023-04-07T06:07:14;93239.97;;;2.55;74.22
35888;BME280;21990;42.540;23.496;2023-04-07T06:09:39;93226.91;;;3.18;73.89
35888;BME280;21990;42.540;23.496;2023-04-07T06:12:07;93227.84;;;4.25;74.44
35888;BME280;21990;42.540;23.496;2023-04-07T06:14:33;93217.84;;;4.61;69.19
35888;BME280;21990;42.540;23.496;2023-04-07T06:16:59;93228.34;;;5.72;72.80
35888;BME280;21990;42.540;23.496;2023-04-07T06:19:25;93219.06;;;6.96;63.26
35888;BME280;21990;42.540;23.496;2023-04-07T06:21:52;93218.84;;;7.29;57.81
35888;BME280;21990;42.540;23.496;2023-04-07T06:24:17;93225.31;;;7.78;61.99
35888;BME280;21990;42.540;23.496;2023-04-07T06:26:43;93216.28;;;8.45;62.49
35888;BME280;21990;42.540;23.496;2023-04-07T06:29:09;93221.00;;;8.98;58.35
35888;BME280;21990;42.540;23.496;2023-04-07T06:31:35;93215.41;;;9.30;57.55
35888;BME280;21990;42.540;23.496;2023-04-07T06:34:01;93217.16;;;10.29;50.63
35888;BME280;21990;42.540;23.496;2023-04-07T06:36:27;93227.94;;;10.57;46.73
35888;BME280;21990;42.540;23.496;2023-04-07T06:38:53;93223.25;;;10.72;45.91
35888;BME280;21990;42.540;23.496;2023-04-07T06:41:18;93218.19;;;10.13;45.24
35888;BME280;21990;42.540;23.496;2023-04-07T06:43:48;93214.69;;;10.25;49.10
35888;BME280;21990;42.540;23.496;2023-04-07T06:46:16;93209.59;;;10.89;43.57
35888;BME280;21990;42.540;23.496;2023-04-07T06:48:41;93209.47;;;11.42;46.87
35888;BME280;21990;42.540;23.496;2023-04-07T06:51:07;93209.91;;;11.80;45.55
35888;BME280;21990;42.540;23.496;2023-04-07T06:53:32;93212.50;;;11.44;41.79
35888;BME280;21990;42.540;23.496;2023-04-07T06:56:10;93215.13;;;10.42;42.58
35888;BME280;21990;42.540;23.496;2023-04-07T06:58:36;93214.03;;;9.87;42.94
35888;BME280;21990;42.540;23.496;2023-04-07T07:01:03;93222.56;;;9.31;42.57
35888;BME280;21990;42.540;23.496;2023-04-07T07:03:29;93222.50;;;8.99;42.09
35888;BME280;21990;42.540;23.496;2023-04-07T07:05:56;93218.31;;;9.75;45.94
35888;BME280;21990;42.540;23.496;2023-04-07T07:08:22;93211.63;;;9.28;42.90
35888;BME280;21990;42.540;23.496;2023-04-07T07:10:48;93206.69;;;8.78;42.81
35888;BME280;21990;42.540;23.496;2023-04-07T07:13:13;93207.91;;;8.64;45.28
35888;BME280;21990;42.540;23.496;2023-04-07T07:15:39;93208.03;;;9.46;45.60
35888;BME280;21990;42.540;23.496;2023-04-07T07:18:05;93218.06;;;9.60;45.08
35888;BME280;21990;42.540;23.496;2023-04-07T07:20:30;93226.00;;;8.87;41.10
35888;BME280;21990;42.540;23.496;2023-04-07T07:22:56;93226.91;;;8.95;47.69
35888;BME280;21990;42.540;23.496;2023-04-07T07:25:22;93224.25;;;9.40;42.22
35888;BME280;21990;42.540;23.496;2023-04-07T07:27:48;93213.81;;;9.35;45.66
35888;BME280;21990;42.540;23.496;2023-04-07T07:30:19;93215.81;;;10.04;40.14
35888;BME280;21990;42.540;23.496;2023-04-07T07:32:45;93220.03;;;9.46;41.56
35888;BME280;21990;42.540;23.496;2023-04-07T07:35:10;93226.38;;;9.52;44.12
35888;BME280;21990;42.540;23.496;2023-04-07T07:37:36;93219.91;;;9.39;42.60
35888;BME280;21990;42.540;23.496;2023-04-07T07:40:01;93222.22;;;9.22;42.71
35888;BME280;21990;42.540;23.496;2023-04-07T07:42:29;93234.56;;;9.50;44.64
35888;BME280;21990;42.540;23.496;2023-04-07T07:44:55;93238.78;;;9.25;42.23
35888;BME280;21990;42.540;23.496;2023-04-07T07:47:21;93236.19;;;9.09;44.54
35888;BME280;21990;42.540;23.496;2023-04-07T07:49:46;93235.66;;;9.29;48.63
35888;BME280;21990;42.540;23.496;2023-04-07T07:52:12;93229.28;;;9.28;46.30
35888;BME280;21990;42.540;23.496;2023-04-07T07:54:37;93236.63;;;9.31;45.91
35888;BME280;21990;42.540;23.496;2023-04-07T07:57:03;93230.97;;;9.50;45.82
35888;BME280;21990;42.540;23.496;2023-04-07T07:59:29;93241.56;;;9.44;44.84
35888;BME280;21990;42.540;23.496;2023-04-07T08:01:55;93232.28;;;9.30;46.13
35888;BME280;21990;42.540;23.496;2023-04-07T08:04:20;93233.38;;;9.27;44.38
35888;BME280;21990;42.540;23.496;2023-04-07T08:06:47;93236.09;;;8.95;46.24
35888;BME280;21990;42.540;23.496;2023-04-07T08:09:14;93239.97;;;8.92;45.47
35888;BME280;21990;42.540;23.496;2023-04-07T08:11:39;93234.47;;;8.63;44.00
35888;BME280;21990;42.540;23.496;2023-04-07T08:14:05;93231.72;;;8.57;47.08
35888;BME280;21990;42.540;23.496;2023-04-07T08:16:31;93242.81;;;8.68;49.23
35888;BME280;21990;42.540;23.496;2023-04-07T08:18:56;93235.72;;;8.86;46.73
35888;BME280;21990;42.540;23.496;2023-04-07T08:21:22;93233.13;;;8.88;46.62
35888;BME280;21990;42.540;23.496;2023-04-07T08:23:48;93228.22;;;8.94;46.96
35888;BME280;21990;42.540;23.496;2023-04-07T08:26:13;93242.47;;;8.96;45.49
35888;BME280;21990;42.540;23.496;2023-04-07T08:28:39;93241.69;;;8.77;45.31
35888;BME280;21990;42.540;23.496;2023-04-07T08:31:04;93250.72;;;8.70;47.51
35888;BME280;21990;42.540;23.496;2023-04-07T08:33:30;93249.47;;;8.89;48.52
35888;BME280;21990;42.540;23.496;2023-04-07T08:35:55;93250.59;;;8.99;48.19
35888;BME280;21990;42.540;23.496;2023-04-07T08:38:21;93246.81;;;8.97;46.72
35888;BME280;21990;42.540;23.496;2023-04-07T08:40:49;93242.72;;;8.98;44.91
35888;BME280;21990;42.540;23.496;2023-04-07T08:43:19;93252.50;;;8.91;45.92
35888;BME280;21990;42.540;23.496;2023-04-07T08:45:45;93247.25;;;8.82;44.78
35888;BME280;21990;42.540;23.496;2023-04-07T08:48:17;93245.09;;;8.70;46.32
35888;BME280;21990;42.540;23.496;2023-04-07T08:50:48;93248.59;;;8.76;46.89
35888;BME280;21990;42.540;23.496;2023-04-07T08:53:21;93247.47;;;8.84;47.31
35888;BME280;21990;42.540;23.496;2023-04-07T08:55:47;93240.28;;;9.07;48.51
35888;BME280;21990;42.540;23.496;2023-04-07T08:58:14;93249.72;;;9.29;45.19
35888;BME280;21990;42.540;23.496;2023-04-07T09:00:43;93239.13;;;9.35;44.65
35888;BME280;21990;42.540;23.496;2023-04-07T09:03:10;93236.41;;;9.48;45.53
35888;BME280;21990;42.540;23.496;2023-04-07T09:05:36;93246.44;;;9.43;44.38
35888;BME280;21990;42.540;23.496;2023-04-07T09:08:02;93241.91;;;9.53;44.52
35888;BME280;21990;42.540;23.496;2023-04-07T09:10:27;93249.63;;;9.53;44.90
35888;BME280;21990;42.540;23.496;2023-04-07T09:12:53;93247.72;;;9.42;46.19
35888;BME280;21990;42.540;23.496;2023-04-07T09:15:19;93246.63;;;9.45;45.20
35888;BME280;21990;42.540;23.496;2023-04-07T09:17:45;93254.66;;;9.41;43.12
35888;BME280;21990;42.540;23.496;2023-04-07T09:20:11;93253.44;;;9.37;44.69
35888;BME280;21990;42.540;23.496;2023-04-07T09:25:16;93259.94;;;9.07;46.43
35888;BME280;21990;42.540;23.496;2023-04-07T09:28:02;93258.19;;;9.04;45.88
35888;BME280;21990;42.540;23.496;2023-04-07T09:30:28;93265.50;;;8.94;44.24
35888;BME280;21990;42.540;23.496;2023-04-07T09:32:55;93263.88;;;8.80;43.82
35888;BME280;21990;42.540;23.496;2023-04-07T09:35:21;93262.53;;;8.87;46.23
35888;BME280;21990;42.540;23.496;2023-04-07T09:38:04;93254.25;;;8.94;45.42
35888;BME280;21990;42.540;23.496;2023-04-07T09:40:31;93253.78;;;8.90;44.59
35888;BME280;21990;42.540;23.496;2023-04-07T09:42:57;93256.81;;;8.92;45.76
35888;BME280;21990;42.540;23.496;2023-04-07T09:45:26;93252.72;;;8.75;43.33
35888;BME280;21990;42.540;23.496;2023-04-07T09:47:53;93258.72;;;8.84;44.23
35888;BME280;21990;42.540;23.496;2023-04-07T09:50:40;93257.72;;;8.82;43.30
35888;BME280;21990;42.540;23.496;2023-04-07T09:53:09;93257.81;;;8.95;44.45
35888;BME280;21990;42.540;23.496;2023-04-07T09:55:35;93255.19;;;9.02;46.13
35888;BME280;21990;42.540;23.496;2023-04-07T09:58:03;93256.84;;;9.11;45.36
35888;BME280;21990;42.540;23.496;2023-04-07T10:00:29;93263.47;;;9.14;43.99
35888;BME280;21990;42.540;23.496;2023-04-07T10:02:54;93256.06;;;8.92;42.13
35888;BME280;21990;42.540;23.496;2023-04-07T10:05:21;93256.97;;;8.81;44.85
35888;BME280;21990;42.540;23.496;2023-04-07T10:07:47;93261.69;;;8.92;46.03
35888;BME280;21990;42.540;23.496;2023-04-07T10:10:12;93260.56;;;9.00;44.91
35888;BME280;21990;42.540;23.496;2023-04-07T10:12:38;93262.00;;;9.07;45.99
35888;BME280;21990;42.540;23.496;2023-04-07T10:15:05;93258.81;;;9.16;47.20
35888;BME280;21990;42.540;23.496;2023-04-07T10:17:32;93256.47;;;9.20;46.50
35888;BME280;21990;42.540;23.496;2023-04-07T10:19:58;93257.53;;;9.17;45.74
35888;BME280;21990;42.540;23.496;2023-04-07T10:22:28;93254.03;;;9.11;44.44
35888;BME280;21990;42.540;23.496;2023-04-07T10:24:59;93255.63;;;9.06;43.41
35888;BME280;21990;42.540;23.496;2023-04-07T10:27:31;93252.19;;;8.95;44.19
35888;BME280;21990;42.540;23.496;2023-04-07T10:29:59;93252.38;;;9.02;45.29
35888;BME280;21990;42.540;23.496;2023-04-07T10:32:25;93255.53;;;8.93;43.42
35888;BME280;21990;42.540;23.496;2023-04-07T10:37:21;93258.94;;;8.86;47.81
35888;BME280;21990;42.540;23.496;2023-04-07T10:39:52;93263.22;;;8.93;46.96
35888;BME280;21990;42.540;23.496;2023-04-07T10:45:03;93265.34;;;8.87;45.82
35888;BME280;21990;42.540;23.496;2023-04-07T10:47:29;93261.75;;;8.86;43.94
35888;BME280;21990;42.540;23.496;2023-04-07T10:50:14;93269.44;;;9.04;45.78
35888;BME280;21990;42.540;23.496;2023-04-07T10:52:40;93274.16;;;9.15;47.18
35888;BME280;21990;42.540;23.496;2023-04-07T10:55:28;93269.09;;;9.14;46.60
35888;BME280;21990;42.540;23.496;2023-04-07T10:58:17;93268.84;;;9.12;45.98
35888;BME280;21990;42.540;23.496;2023-04-07T11:03:52;93280.91;;;9.06;45.75
35888;BME280;21990;42.540;23.496;2023-04-07T11:06:18;93278.63;;;9.05;46.02
35888;BME280;21990;42.540;23.496;2023-04-07T11:08:46;93278.63;;;9.05;46.97
35888;BME280;21990;42.540;23.496;2023-04-07T11:11:13;93278.50;;;9.16;48.19
35888;BME280;21990;42.540;23.496;2023-04-07T11:13:49;93266.94;;;9.01;44.35
35888;BME280;21990;42.540;23.496;2023-04-07T11:16:17;93271.41;;;8.91;45.87
35888;BME280;21990;42.540;23.496;2023-04-07T11:18:44;93262.09;;;9.01;44.75
35888;BME280;21990;42.540;23.496;2023-04-07T11:21:10;93265.09;;;9.03;43.76
35888;BME280;21990;42.540;23.496;2023-04-07T11:23:40;93272.78;;;9.03;44.38
35888;BME280;21990;42.540;23.496;2023-04-07T11:26:07;93273.84;;;9.19;46.76
35888;BME280;21990;42.540;23.496;2023-04-07T11:28:35;93272.09;;;9.34;44.99
35888;BME280;21990;42.540;23.496;2023-04-07T11:31:08;93276.13;;;9.39;45.39
35888;BME280;21990;42.540;23.496;2023-04-07T11:33:34;93276.38;;;9.41;45.56
35888;BME280;21990;42.540;23.496;2023-04-07T11:36:01;93277.88;;;9.42;44.23
35888;BME280;21990;42.540;23.496;2023-04-07T11:38:29;93270.06;;;9.35;42.65
35888;BME280;21990;42.540;23.496;2023-04-07T11:40:55;93269.59;;;9.31;44.12
35888;BME280;21990;42.540;23.496;2023-04-07T11:43:22;93261.25;;;9.44;45.84
35888;BME280;21990;42.540;23.496;2023-04-07T11:46:09;93270.03;;;9.53;47.30
35888;BME280;21990;42.540;23.496;2023-04-07T11:48:35;93262.69;;;9.50;47.55
35888;BME280;21990;42.540;23.496;2023-04-07T11:51:02;93260.88;;;9.53;47.40
35888;BME280;21990;42.540;23.496;2023-04-07T11:53:29;93265.72;;;9.52;46.82
35888;BME280;21990;42.540;23.496;2023-04-07T11:56:06;93270.81;;;9.54;45.84
35888;BME280;21990;42.540;23.496;2023-04-07T11:58:34;93268.56;;;9.52;43.53
35888;BME280;21990;42.540;23.496;2023-04-07T12:01:02;93269.84;;;9.51;45.97
35888;BME280;21990;42.540;23.496;2023-04-07T12:03:36;93273.94;;;9.50;47.05
35888;BME280;21990;42.540;23.496;2023-04-07T12:06:02;93269.69;;;9.44;46.94
35888;BME280;21990;42.540;23.496;2023-04-07T12:08:39;93273.63;;;9.35;46.58
35888;BME280;21990;42.540;23.496;2023-04-07T12:11:06;93266.09;;;9.43;48.09
35888;BME280;21990;42.540;23.496;2023-04-07T12:13:33;93277.56;;;9.45;46.27
35888;BME280;21990;42.540;23.496;2023-04-07T12:15:58;93275.84;;;9.42;47.05
35888;BME280;21990;42.540;23.496;2023-04-07T12:18:25;93271.53;;;9.41;46.91
35888;BME280;21990;42.540;23.496;2023-04-07T12:20:51;93271.66;;;9.30;46.26
35888;BME280;21990;42.540;23.496;2023-04-07T12:23:16;93274.25;;;9.28;46.41
35888;BME280;21990;42.540;23.496;2023-04-07T12:25:42;93274.63;;;9.38;45.86
35888;BME280;21990;42.540;23.496;2023-04-07T12:28:08;93274.47;;;9.49;46.86
35888;BME280;21990;42.540;23.496;2023-04-07T12:30:33;93276.53;;;9.48;46.12
35888;BME280;21990;42.540;23.496;2023-04-07T12:32:59;93278.78;;;9.50;46.86
35888;BME280;21990;42.540;23.496;2023-04-07T12:35:24;93272.97;;;9.48;46.96
35888;BME280;21990;42.540;23.496;2023-04-07T12:37:50;93271.72;;;9.43;46.18
35888;BME280;21990;42.540;23.496;2023-04-07T12:40:17;93269.59;;;9.49;47.22
35888;BME280;21990;42.540;23.496;2023-04-07T12:42:42;93268.09;;;9.48;47.74
35888;BME280;21990;42.540;23.496;2023-04-07T12:45:08;93266.41;;;9.40;47.87
35888;BME280;21990;42.540;23.496;2023-04-07T12:47:34;93261.88;;;9.37;48.48
35888;BME280;21990;42.540;23.496;2023-04-07T12:49:59;93261.94;;;9.31;48.79
35888;BME280;21990;42.540;23.496;2023-04-07T12:52:26;93259.50;;;9.22;47.52
35888;BME280;21990;42.540;23.496;2023-04-07T12:54:51;93269.44;;;9.23;47.95
35888;BME280;21990;42.540;23.496;2023-04-07T12:57:18;93272.97;;;9.29;48.97
35888;BME280;21990;42.540;23.496;2023-04-07T12:59:43;93263.63;;;9.21;48.53
35888;BME280;21990;42.540;23.496;2023-04-07T13:02:09;93268.31;;;9.32;48.70
35888;BME280;21990;42.540;23.496;2023-04-07T13:04:37;93256.16;;;9.42;48.84
35888;BME280;21990;42.540;23.496;2023-04-07T13:07:05;93262.09;;;9.39;48.28
35888;BME280;21990;42.540;23.496;2023-04-07T13:09:30;93266.28;;;9.32;48.15
35888;BME280;21990;42.540;23.496;2023-04-07T13:11:56;93265.28;;;9.30;47.75
35888;BME280;21990;42.540;23.496;2023-04-07T13:14:22;93270.22;;;9.24;47.57
35888;BME280;21990;42.540;23.496;2023-04-07T13:16:48;93257.44;;;9.23;48.26
35888;BME280;21990;42.540;23.496;2023-04-07T13:19:13;93269.31;;;9.16;47.84
35888;BME280;21990;42.540;23.496;2023-04-07T13:21:39;93266.94;;;9.01;48.24
35888;BME280;21990;42.540;23.496;2023-04-07T13:24:04;93269.09;;;9.14;48.54
35888;BME280;21990;42.540;23.496;2023-04-07T13:26:30;93270.00;;;9.22;48.11
35888;BME280;21990;42.540;23.496;2023-04-07T13:28:55;93262.84;;;9.21;47.70
35888;BME280;21990;42.540;23.496;2023-04-07T13:31:21;93267.03;;;9.14;48.15
35888;BME280;21990;42.540;23.496;2023-04-07T13:33:48;93261.94;;;9.13;47.47
35888;BME280;21990;42.540;23.496;2023-04-07T13:36:13;93271.13;;;9.13;49.48
35888;BME280;21990;42.540;23.496;2023-04-07T13:38:39;93267.19;;;9.22;48.62
35888;BME280;21990;42.540;23.496;2023-04-07T13:41:06;93267.94;;;9.22;49.13
35888;BME280;21990;42.540;23.496;2023-04-07T13:43:32;93275.69;;;9.16;49.60
35888;BME280;21990;42.540;23.496;2023-04-07T13:45:57;93280.91;;;9.06;47.96
35888;BME280;21990;42.540;23.496;2023-04-07T13:48:23;93283.09;;;8.95;48.79
35888;BME280;21990;42.540;23.496;2023-04-07T13:50:48;93285.16;;;8.94;49.36
35888;BME280;21990;42.540;23.496;2023-04-07T13:53:14;93288.50;;;8.93;49.14
35888;BME280;21990;42.540;23.496;2023-04-07T13:55:40;93299.78;;;8.87;49.69
35888;BME280;21990;42.540;23.496;2023-04-07T13:58:05;93298.13;;;8.79;49.98
35888;BME280;21990;42.540;23.496;2023-04-07T14:00:31;93302.63;;;8.63;48.93
35888;BME280;21990;42.540;23.496;2023-04-07T14:02:57;93305.00;;;8.53;50.30
35888;BME280;21990;42.540;23.496;2023-04-07T14:05:23;93313.03;;;8.44;49.95
35888;BME280;21990;42.540;23.496;2023-04-07T14:07:48;93319.22;;;8.37;50.34
35888;BME280;21990;42.540;23.496;2023-04-07T14:10:15;93312.59;;;8.34;50.66
35888;BME280;21990;42.540;23.496;2023-04-07T14:12:40;93329.97;;;8.33;50.68
35888;BME280;21990;42.540;23.496;2023-04-07T14:15:06;93335.63;;;8.27;51.02
35888;BME280;21990;42.540;23.496;2023-04-07T14:17:32;93326.94;;;8.25;50.98
35888;BME280;21990;42.540;23.496;2023-04-07T14:19:58;93337.22;;;8.17;50.64
35888;BME280;21990;42.540;23.496;2023-04-07T14:22:23;93337.09;;;8.04;51.60
35888;BME280;21990;42.540;23.496;2023-04-07T14:24:49;93338.31;;;8.08;51.56
35888;BME280;21990;42.540;23.496;2023-04-07T14:27:15;93336.31;;;8.03;51.23
35888;BME280;21990;42.540;23.496;2023-04-07T14:29:46;93338.44;;;7.92;51.46
35888;BME280;21990;42.540;23.496;2023-04-07T14:32:11;93344.06;;;7.92;51.39
35888;BME280;21990;42.540;23.496;2023-04-07T14:34:37;93339.59;;;7.78;51.72
35888;BME280;21990;42.540;23.496;2023-04-07T14:37:02;93350.53;;;7.81;52.52
35888;BME280;21990;42.540;23.496;2023-04-07T14:39:28;93346.19;;;7.80;52.94
35888;BME280;21990;42.540;23.496;2023-04-07T14:41:54;93345.41;;;7.80;52.76
35888;BME280;21990;42.540;23.496;2023-04-07T14:44:19;93348.72;;;7.78;52.62
35888;BME280;21990;42.540;23.496;2023-04-07T14:46:45;93358.75;;;7.68;53.16
35888;BME280;21990;42.540;23.496;2023-04-07T14:49:13;93356.47;;;7.67;53.49
35888;BME280;21990;42.540;23.496;2023-04-07T14:51:39;93365.44;;;7.59;54.02
35888;BME280;21990;42.540;23.496;2023-04-07T14:54:05;93361.66;;;7.51;54.75
35888;BME280;21990;42.540;23.496;2023-04-07T14:56:30;93366.53;;;7.40;54.97
35888;BME280;21990;42.540;23.496;2023-04-07T14:58:56;93367.13;;;7.27;56.23
35888;BME280;21990;42.540;23.496;2023-04-07T15:01:22;93367.44;;;7.12;55.78
35888;BME280;21990;42.540;23.496;2023-04-07T15:03:47;93373.31;;;7.14;56.94
35888;BME280;21990;42.540;23.496;2023-04-07T15:06:13;93377.91;;;7.01;57.23
35888;BME280;21990;42.540;23.496;2023-04-07T15:08:39;93389.44;;;6.92;57.38
35888;BME280;21990;42.540;23.496;2023-04-07T15:11:06;93382.31;;;6.80;58.32
35888;BME280;21990;42.540;23.496;2023-04-07T15:13:32;93388.94;;;6.82;58.30
35888;BME280;21990;42.540;23.496;2023-04-07T15:16:10;93385.63;;;6.84;58.21
35888;BME280;21990;42.540;23.496;2023-04-07T15:18:39;93385.38;;;6.76;58.60
35888;BME280;21990;42.540;23.496;2023-04-07T15:21:06;93386.66;;;6.81;58.44
35888;BME280;21990;42.540;23.496;2023-04-07T15:23:32;93392.75;;;6.85;59.01
35888;BME280;21990;42.540;23.496;2023-04-07T15:25:58;93384.09;;;6.83;59.07
35888;BME280;21990;42.540;23.496;2023-04-07T15:28:24;93393.75;;;6.82;59.44
35888;BME280;21990;42.540;23.496;2023-04-07T15:30:49;93387.66;;;6.83;59.25
35888;BME280;21990;42.540;23.496;2023-04-07T15:33:16;93392.50;;;6.83;59.30
35888;BME280;21990;42.540;23.496;2023-04-07T15:35:42;93395.78;;;6.87;60.25
35888;BME280;21990;42.540;23.496;2023-04-07T15:38:08;93395.56;;;6.85;59.95
35888;BME280;21990;42.540;23.496;2023-04-07T15:40:38;93399.38;;;6.87;59.98
35888;BME280;21990;42.540;23.496;2023-04-07T15:43:04;93391.75;;;6.77;60.33
35888;BME280;21990;42.540;23.496;2023-04-07T15:45:31;93397.63;;;6.62;60.38
35888;BME280;21990;42.540;23.496;2023-04-07T15:47:57;93392.78;;;6.62;60.45
35888;BME280;21990;42.540;23.496;2023-04-07T15:50:22;93399.66;;;6.67;60.08
35888;BME280;21990;42.540;23.496;2023-04-07T15:52:49;93398.88;;;6.66;60.53
35888;BME280;21990;42.540;23.496;2023-04-07T15:55:15;93406.53;;;6.72;60.88
35888;BME280;21990;42.540;23.496;2023-04-07T15:57:40;93405.25;;;6.73;60.81
35888;BME280;21990;42.540;23.496;2023-04-07T16:00:06;93404.22;;;6.70;60.56
35888;BME280;21990;42.540;23.496;2023-04-07T16:02:32;93402.97;;;6.71;60.52
35888;BME280;21990;42.540;23.496;2023-04-07T16:04:58;93416.72;;;6.63;60.63
35888;BME280;21990;42.540;23.496;2023-04-07T16:07:23;93408.56;;;6.60;61.05
35888;BME280;21990;42.540;23.496;2023-04-07T16:09:50;93415.22;;;6.57;60.35
35888;BME280;21990;42.540;23.496;2023-04-07T16:12:15;93411.63;;;6.62;61.58
35888;BME280;21990;42.540;23.496;2023-04-07T16:14:42;93419.78;;;6.49;61.66
35888;BME280;21990;42.540;23.496;2023-04-07T16:17:08;93426.66;;;6.53;61.39
35888;BME280;21990;42.540;23.496;2023-04-07T16:19:33;93424.38;;;6.30;61.60
35888;BME280;21990;42.540;23.496;2023-04-07T16:21:59;93430.22;;;6.32;62.43
35888;BME280;21990;42.540;23.496;2023-04-07T16:24:24;93439.91;;;6.42;61.55
35888;BME280;21990;42.540;23.496;2023-04-07T16:26:50;93440.88;;;6.50;62.59
35888;BME280;21990;42.540;23.496;2023-04-07T16:29:19;93446.25;;;6.53;61.52
35888;BME280;21990;42.540;23.496;2023-04-07T16:31:44;93442.94;;;6.44;61.86
35888;BME280;21990;42.540;23.496;2023-04-07T16:34:10;93456.69;;;6.47;62.24
35888;BME280;21990;42.540;23.496;2023-04-07T16:36:36;93448.03;;;6.56;62.04